Alvares Machado, Brazil
Current Conditions -  °F | °C
As of 5:00 PM on Thursday 30 Oct 2014 (Local Time) from SBDN Reporting Station
Clear Clear  
Wind Chill: 97°   Ceiling: Unl
Heat Index: 97°   Visibility: 6mi
Dew Point: 55°   Wind: 7mph
Humidity: 25%   Direction: 340°NNW
Pressure: 29.71"   Gusts: NA
Location:  22.13°S, 51.5°W
Report Text: SBDN 301900Z 34006KT CAVOK 36/13 Q1006
Loading
Personal Weather Stations






























Interactive Weather Map
Tropical Storm Tracking
New forecast layout! Learn more

10-Day Weather Forecast

Advertisements
Track Severe Weather on mobile